sim
Sign-in with your pilot id or email,
or register
Callsign
Passwort

Schedule Details

Flight Number: DLH2473
Departure: London Heathrow Airport (EGLL) at 11:10
Arrival: Munich Airport (EDDM) at 12:55
Route: Lufthansa Passenger Schedule. Enter filed route here before submitting Pirep.

Weather Information
Getting current METAR information for EGLL 210250Z AUTO 05004KT 010V110 9999 OVC008 15/13 Q1018 NOSIG
Getting current METAR information for EDDM 210250Z 00000KT CAVOK 08/08 Q1016 NOSIG

Schedule Frequency

Route Map